createdAt,value
2022-09-27T00:00:32.464Z,50.922844
2022-09-27T00:01:32.487Z,50.922707
2022-09-27T00:02:32.525Z,50.922668
2022-09-27T00:03:32.471Z,50.922787
2022-09-27T00:04:32.436Z,50.922840
2022-09-27T00:05:32.426Z,50.922874
2022-09-27T00:06:32.421Z,50.922970
2022-09-27T00:07:32.414Z,50.922977
2022-09-27T00:08:32.444Z,50.922813
2022-09-27T00:09:32.401Z,50.922859
2022-09-27T00:10:32.383Z,50.922874
2022-09-27T00:11:32.378Z,50.922817
2022-09-27T00:12:32.373Z,50.922771
2022-09-27T00:13:32.391Z,50.922874
2022-09-27T00:14:32.357Z,50.923004
2022-09-27T00:15:32.401Z,50.923229
2022-09-27T00:16:32.335Z,50.922855
2022-09-27T00:17:32.327Z,50.922901
2022-09-27T00:18:33.345Z,50.922962
2022-09-27T00:19:32.311Z,50.922909
2022-09-27T00:20:32.303Z,50.922955
2022-09-27T00:21:32.306Z,50.922974
2022-09-27T00:22:32.284Z,50.922966
2022-09-27T00:23:32.310Z,50.922768
2022-09-27T00:24:32.273Z,50.922848
2022-09-27T00:25:32.258Z,50.922855
2022-09-27T00:26:32.259Z,50.922844
2022-09-27T00:27:32.249Z,50.922886
2022-09-27T00:28:32.271Z,50.922871
2022-09-27T00:29:32.228Z,50.922829
2022-09-27T00:30:32.219Z,50.922829
2022-09-27T00:31:32.306Z,50.922909
2022-09-27T00:32:32.214Z,50.922821
2022-09-27T00:33:32.239Z,50.922852
2022-09-27T00:34:32.194Z,50.922928
2022-09-27T00:35:32.185Z,50.922966
2022-09-27T00:36:32.176Z,50.923096
2022-09-27T00:37:32.166Z,50.922920
2022-09-27T00:38:32.189Z,50.922825
2022-09-27T00:39:32.155Z,50.922840
2022-09-27T00:40:32.186Z,50.922710
2022-09-27T00:41:32.135Z,50.922806
2022-09-27T00:42:32.134Z,50.922855
2022-09-27T00:43:32.126Z,50.922924
2022-09-27T00:44:32.140Z,50.922802
2022-09-27T00:45:32.106Z,50.922661
2022-09-27T00:46:32.182Z,50.922676
2022-09-27T00:47:32.087Z,50.922688
2022-09-27T00:48:32.078Z,50.922760
2022-09-27T00:49:32.107Z,50.922813
2022-09-27T00:50:32.067Z,50.922852
2022-09-27T00:51:32.068Z,50.922859
2022-09-27T00:52:32.049Z,50.922844
2022-09-27T00:53:32.034Z,50.922882
2022-09-27T00:54:32.056Z,50.922882
2022-09-27T00:55:32.020Z,50.922951
2022-09-27T00:56:32.016Z,50.922966
2022-09-27T00:57:32.004Z,50.923004
2022-09-27T00:58:31.990Z,50.922935
2022-09-27T00:59:32.015Z,50.922997
2022-09-27T01:00:31.987Z,50.923065
2022-09-27T01:01:31.999Z,50.923065
2022-09-27T01:02:32.016Z,50.922981
2022-09-27T01:03:31.953Z,50.922901
2022-09-27T01:04:31.971Z,50.922886
2022-09-27T01:05:31.938Z,50.922913
2022-09-27T01:06:31.926Z,50.922943
2022-09-27T01:07:32.918Z,50.922867
2022-09-27T01:08:31.917Z,50.923027
2022-09-27T01:09:31.929Z,50.922878
2022-09-27T01:10:31.899Z,50.923069
2022-09-27T01:11:31.893Z,50.922974
2022-09-27T01:12:31.878Z,50.923050
2022-09-27T01:13:31.872Z,50.923061
2022-09-27T01:14:31.895Z,50.923008
2022-09-27T01:15:31.896Z,50.923000
2022-09-27T01:16:31.847Z,50.922993
2022-09-27T01:17:31.838Z,50.922981
2022-09-27T01:18:31.834Z,50.922939
2022-09-27T01:19:31.853Z,50.922932
2022-09-27T01:20:31.821Z,50.922928
2022-09-27T01:21:31.807Z,50.922806
2022-09-27T01:22:31.802Z,50.922935
2022-09-27T01:23:31.818Z,50.922829
2022-09-27T01:24:31.804Z,50.923038
2022-09-27T01:25:31.771Z,50.922981
2022-09-27T01:26:31.764Z,50.922932
2022-09-27T01:27:31.760Z,50.923027
2022-09-27T01:28:31.749Z,50.923016
2022-09-27T01:29:31.766Z,50.923042
2022-09-27T01:30:31.727Z,50.923103
2022-09-27T01:31:31.752Z,50.923176
2022-09-27T01:32:31.736Z,50.923141
2022-09-27T01:33:31.713Z,50.923023
2022-09-27T01:34:31.723Z,50.923000
2022-09-27T01:35:31.686Z,50.922993
2022-09-27T01:36:31.680Z,50.922970
2022-09-27T01:37:31.668Z,50.922955
2022-09-27T01:38:31.664Z,50.923195
2022-09-27T01:39:31.682Z,50.922920
2022-09-27T01:40:31.671Z,50.922924
2022-09-27T01:41:31.642Z,50.922932
2022-09-27T01:42:31.627Z,50.922859
2022-09-27T01:43:31.628Z,50.922970
2022-09-27T01:44:31.645Z,50.922913
2022-09-27T01:45:31.608Z,50.923122
2022-09-27T01:46:31.660Z,50.923092
2022-09-27T01:47:31.594Z,50.923164
2022-09-27T01:48:31.586Z,50.923111
2022-09-27T01:49:31.599Z,50.923115
2022-09-27T01:50:31.569Z,50.923012
2022-09-27T01:51:31.559Z,50.923004
2022-09-27T01:52:31.549Z,50.923046
2022-09-27T01:53:31.549Z,50.923069
2022-09-27T01:54:31.561Z,50.923058
2022-09-27T01:55:31.529Z,50.922997
2022-09-27T01:56:31.521Z,50.923000
2022-09-27T01:57:31.512Z,50.923058
2022-09-27T01:58:31.505Z,50.922955
2022-09-27T01:59:31.531Z,50.922935
2022-09-27T02:00:31.492Z,50.922970
2022-09-27T02:01:31.574Z,50.923286
2022-09-27T02:02:31.523Z,50.923054
2022-09-27T02:03:31.473Z,50.923008
2022-09-27T02:04:31.482Z,50.922916
2022-09-27T02:05:31.452Z,50.923027
2022-09-27T02:06:31.431Z,50.923080
2022-09-27T02:07:31.431Z,50.923080
2022-09-27T02:08:31.426Z,50.922977
2022-09-27T02:09:31.444Z,50.923035
2022-09-27T02:10:31.411Z,50.922901
2022-09-27T02:11:31.394Z,50.922867
2022-09-27T02:12:31.390Z,50.922783
2022-09-27T02:13:31.380Z,50.922905
2022-09-27T02:14:31.399Z,50.922874
2022-09-27T02:15:31.422Z,50.923080
2022-09-27T02:16:31.355Z,50.923008
2022-09-27T02:17:31.335Z,50.922916
2022-09-27T02:18:32.341Z,50.923050
2022-09-27T02:19:31.359Z,50.923065
2022-09-27T02:20:31.317Z,50.922825
2022-09-27T02:21:31.312Z,50.922848
2022-09-27T02:22:31.302Z,50.922920
2022-09-27T02:23:31.296Z,50.922894
2022-09-27T02:24:31.314Z,50.922844
2022-09-27T02:25:31.281Z,50.922882
2022-09-27T02:26:31.272Z,50.922867
2022-09-27T02:27:31.263Z,50.922947
2022-09-27T02:28:31.248Z,50.922768
2022-09-27T02:29:31.269Z,50.922771
2022-09-27T02:30:31.277Z,50.922836
2022-09-27T02:31:31.275Z,50.922859
2022-09-27T02:32:31.216Z,50.923008
2022-09-27T02:33:31.205Z,50.923096
2022-09-27T02:34:31.225Z,50.923004
2022-09-27T02:35:31.194Z,50.923069
2022-09-27T02:36:31.184Z,50.923046
2022-09-27T02:37:31.170Z,50.923050
2022-09-27T02:38:31.172Z,50.923035
2022-09-27T02:39:31.192Z,50.922958
2022-09-27T02:40:31.233Z,50.922985
2022-09-27T02:41:31.148Z,50.922974
2022-09-27T02:42:31.149Z,50.923122
2022-09-27T02:43:31.133Z,50.922989
2022-09-27T02:44:31.150Z,50.923035
2022-09-27T02:45:31.115Z,50.922993
2022-09-27T02:46:31.137Z,50.922913
2022-09-27T02:47:31.096Z,50.922859
2022-09-27T02:48:31.074Z,50.923012
2022-09-27T02:49:32.106Z,50.923058
2022-09-27T02:50:31.073Z,50.922825
2022-09-27T02:51:31.061Z,50.922832
2022-09-27T02:52:31.054Z,50.923210
2022-09-27T02:53:31.046Z,50.923084
2022-09-27T02:54:31.068Z,50.922878
2022-09-27T02:55:31.024Z,50.922825
2022-09-27T02:56:31.018Z,50.922653
2022-09-27T02:57:31.010Z,50.922802
2022-09-27T02:58:30.995Z,50.922798
2022-09-27T02:59:31.017Z,50.922997
2022-09-27T03:00:30.986Z,50.923012
2022-09-27T03:01:31.002Z,50.922913
2022-09-27T03:02:31.995Z,50.922974
2022-09-27T03:03:30.962Z,50.922764
2022-09-27T03:04:30.984Z,50.922768
2022-09-27T03:05:30.946Z,50.922783
2022-09-27T03:06:30.936Z,50.922489
2022-09-27T03:07:30.928Z,50.922478
2022-09-27T03:08:30.926Z,50.922626
2022-09-27T03:09:30.946Z,50.922836
2022-09-27T03:10:30.920Z,50.922852
2022-09-27T03:11:30.900Z,50.922871
2022-09-27T03:12:30.905Z,50.922913
2022-09-27T03:13:30.886Z,50.922985
2022-09-27T03:14:30.900Z,50.922932
2022-09-27T03:15:30.875Z,50.922958
2022-09-27T03:16:30.918Z,50.922951
2022-09-27T03:17:30.854Z,50.922920
2022-09-27T03:18:30.844Z,50.922943
2022-09-27T03:19:30.869Z,50.923046
2022-09-27T03:20:30.857Z,50.922867
2022-09-27T03:21:30.813Z,50.922852
2022-09-27T03:22:30.810Z,50.922886
2022-09-27T03:23:30.802Z,50.922916
2022-09-27T03:24:30.831Z,50.922691
2022-09-27T03:25:30.790Z,50.922749
2022-09-27T03:26:30.778Z,50.922894
2022-09-27T03:27:30.766Z,50.922916
2022-09-27T03:28:30.764Z,50.922844
2022-09-27T03:29:30.746Z,50.922939
2022-09-27T03:30:30.803Z,50.922829
2022-09-27T03:31:31.824Z,50.922863
2022-09-27T03:32:30.720Z,50.922974
2022-09-27T03:33:30.718Z,50.922974
2022-09-27T03:34:30.714Z,50.922989
2022-09-27T03:35:30.730Z,50.922943
2022-09-27T03:36:30.688Z,50.922974
2022-09-27T03:37:30.681Z,50.922985
2022-09-27T03:38:30.672Z,50.923058
2022-09-27T03:39:30.677Z,50.923019
2022-09-27T03:40:30.755Z,50.923004
2022-09-27T03:41:30.652Z,50.922989
2022-09-27T03:42:30.644Z,50.923096
2022-09-27T03:43:30.633Z,50.923103
2022-09-27T03:44:30.630Z,50.923016
2022-09-27T03:45:30.648Z,50.923069
2022-09-27T03:46:30.707Z,50.923042
2022-09-27T03:47:30.595Z,50.923019
2022-09-27T03:48:30.590Z,50.923073
2022-09-27T03:49:30.611Z,50.923141
2022-09-27T03:50:30.602Z,50.923046
2022-09-27T03:51:30.576Z,50.922928
2022-09-27T03:52:30.563Z,50.922890
2022-09-27T03:53:30.561Z,50.922981
2022-09-27T03:54:30.545Z,50.922855
2022-09-27T03:55:30.602Z,50.922874
2022-09-27T03:56:30.529Z,50.923073
2022-09-27T03:57:30.523Z,50.922989
2022-09-27T03:58:30.522Z,50.923088
2022-09-27T03:59:30.516Z,50.923107
2022-09-27T04:00:30.528Z,50.923027
2022-09-27T04:01:30.566Z,50.922958
2022-09-27T04:02:30.537Z,50.922909
2022-09-27T04:03:30.490Z,50.922997
2022-09-27T04:04:30.464Z,50.923046
2022-09-27T04:05:30.521Z,50.922985
2022-09-27T04:06:30.455Z,50.922897
2022-09-27T04:07:30.447Z,50.923126
2022-09-27T04:08:30.455Z,50.923069
2022-09-27T04:09:30.437Z,50.923042
2022-09-27T04:10:30.463Z,50.923050
2022-09-27T04:11:30.419Z,50.922955
2022-09-27T04:12:30.400Z,50.923027
2022-09-27T04:13:30.413Z,50.923054
2022-09-27T04:14:30.388Z,50.923084
2022-09-27T04:15:30.428Z,50.922993
2022-09-27T04:16:30.408Z,50.923218
2022-09-27T04:17:30.363Z,50.923019
2022-09-27T04:18:30.358Z,50.923084
2022-09-27T04:19:30.345Z,50.923103
2022-09-27T04:20:30.375Z,50.923119
2022-09-27T04:21:30.335Z,50.923035
2022-09-27T04:22:30.320Z,50.922924
2022-09-27T04:23:30.433Z,50.922974
2022-09-27T04:24:30.307Z,50.922951
2022-09-27T04:25:30.334Z,50.923042
2022-09-27T04:26:30.294Z,50.923065
2022-09-27T04:27:30.295Z,50.923016
2022-09-27T04:28:30.277Z,50.923004
2022-09-27T04:29:30.303Z,50.922939
2022-09-27T04:30:30.340Z,50.922977
2022-09-27T04:31:30.316Z,50.923069
2022-09-27T04:32:30.250Z,50.922970
2022-09-27T04:33:30.239Z,50.923065
2022-09-27T04:34:30.273Z,50.922997
2022-09-27T04:35:30.223Z,50.923061
2022-09-27T04:36:30.218Z,50.923019
2022-09-27T04:37:30.207Z,50.922909
2022-09-27T04:38:30.197Z,50.923164
2022-09-27T04:39:30.220Z,50.923031
2022-09-27T04:40:30.237Z,50.922897
2022-09-27T04:41:30.183Z,50.923004
2022-09-27T04:42:30.165Z,50.923126
2022-09-27T04:43:30.151Z,50.922974
2022-09-27T04:44:30.170Z,50.922894
2022-09-27T04:45:30.127Z,50.922791
2022-09-27T04:46:30.196Z,50.922516
2022-09-27T04:47:30.119Z,50.922432
2022-09-27T04:48:30.116Z,50.922268
2022-09-27T04:49:30.129Z,50.922306
2022-09-27T04:50:33.255Z,50.922646
2022-09-27T04:51:32.084Z,50.922779
2022-09-27T04:52:30.077Z,50.922974
2022-09-27T04:53:30.076Z,50.923058
2022-09-27T04:54:30.080Z,50.922935
2022-09-27T04:55:30.052Z,50.922974
2022-09-27T04:56:30.051Z,50.923000
2022-09-27T04:57:30.034Z,50.922920
2022-09-27T04:58:30.033Z,50.922989
2022-09-27T04:59:30.046Z,50.923027
2022-09-27T05:00:30.012Z,50.922913
2022-09-27T05:01:30.057Z,50.923042
2022-09-27T05:02:30.011Z,50.923008
2022-09-27T05:03:29.993Z,50.922997
2022-09-27T05:04:30.015Z,50.923069
2022-09-27T05:05:29.969Z,50.922951
2022-09-27T05:06:29.963Z,50.922966
2022-09-27T05:07:29.967Z,50.922886
2022-09-27T05:08:29.946Z,50.922821
2022-09-27T05:09:29.995Z,50.922997
2022-09-27T05:10:29.929Z,50.923096
2022-09-27T05:11:29.917Z,50.923054
2022-09-27T05:12:29.913Z,50.923038
2022-09-27T05:13:29.905Z,50.923046
2022-09-27T05:14:29.936Z,50.923237
2022-09-27T05:15:29.887Z,50.923145
2022-09-27T05:16:32.105Z,50.923214
2022-09-27T05:17:29.866Z,50.923218
2022-09-27T05:18:29.863Z,50.923100
2022-09-27T05:19:29.892Z,50.923035
2022-09-27T05:20:29.857Z,50.922974
2022-09-27T05:21:29.834Z,50.922920
2022-09-27T05:22:29.828Z,50.923035
2022-09-27T05:23:29.829Z,50.923080
2022-09-27T05:24:29.840Z,50.923019
2022-09-27T05:25:29.796Z,50.922882
2022-09-27T05:26:29.819Z,50.922955
2022-09-27T05:27:29.787Z,50.923050
2022-09-27T05:28:29.780Z,50.923126
2022-09-27T05:29:29.798Z,50.923210
2022-09-27T05:30:29.793Z,50.923096
2022-09-27T05:31:29.797Z,50.922749
2022-09-27T05:32:29.745Z,50.922749
2022-09-27T05:33:29.741Z,50.922791
2022-09-27T05:34:29.765Z,50.922829
2022-09-27T05:35:29.724Z,50.922901
2022-09-27T05:36:29.715Z,50.923019
2022-09-27T05:37:29.705Z,50.923107
2022-09-27T05:38:29.692Z,50.923119
2022-09-27T05:39:29.728Z,50.923119
2022-09-27T05:40:40.818Z,50.923199
2022-09-27T05:41:31.815Z,50.922817
2022-09-27T05:42:29.660Z,50.922813
2022-09-27T05:43:29.656Z,50.922924
2022-09-27T05:44:29.644Z,50.922924
2022-09-27T05:45:29.663Z,50.922874
2022-09-27T05:46:29.693Z,50.923069
2022-09-27T05:47:29.616Z,50.923222
2022-09-27T05:48:29.610Z,50.923080
2022-09-27T05:49:29.598Z,50.923050
2022-09-27T05:50:29.625Z,50.922947
2022-09-27T05:51:29.583Z,50.923138
2022-09-27T05:52:29.580Z,50.923134
2022-09-27T05:53:29.557Z,50.923077
2022-09-27T05:54:29.555Z,50.923000
2022-09-27T05:55:29.579Z,50.923035
2022-09-27T05:56:29.543Z,50.923023
2022-09-27T05:57:29.533Z,50.923050
2022-09-27T05:58:29.535Z,50.923016
2022-09-27T05:59:29.546Z,50.922958
2022-09-27T06:00:29.596Z,50.923061
2022-09-27T06:01:29.515Z,50.923038
2022-09-27T06:02:29.526Z,50.923038
2022-09-27T06:03:29.486Z,50.922844
2022-09-27T06:04:29.502Z,50.923088
2022-09-27T06:05:29.461Z,50.922981
2022-09-27T06:06:29.471Z,50.922886
2022-09-27T06:07:29.449Z,50.922985
2022-09-27T06:08:29.448Z,50.922920
2022-09-27T06:09:29.462Z,50.922981
2022-09-27T06:10:29.424Z,50.922935
2022-09-27T06:11:29.420Z,50.923012
2022-09-27T06:12:29.415Z,50.923058
2022-09-27T06:13:29.398Z,50.923027
2022-09-27T06:14:29.424Z,50.922909
2022-09-27T06:15:29.387Z,50.923012
2022-09-27T06:16:29.416Z,50.923000
2022-09-27T06:17:29.366Z,50.923038
2022-09-27T06:18:29.354Z,50.923027
2022-09-27T06:19:29.395Z,50.923042
2022-09-27T06:20:29.347Z,50.923061
2022-09-27T06:21:29.331Z,50.923019
2022-09-27T06:22:29.318Z,50.923019
2022-09-27T06:23:29.315Z,50.922997
2022-09-27T06:24:29.297Z,50.923035
2022-09-27T06:25:29.328Z,50.923149
2022-09-27T06:26:29.306Z,50.923115
2022-09-27T06:27:29.284Z,50.923061
2022-09-27T06:28:29.274Z,50.923050
2022-09-27T06:29:29.294Z,50.922997
2022-09-27T06:30:29.397Z,50.922913
2022-09-27T06:31:29.247Z,50.922935
2022-09-27T06:32:29.249Z,50.922825
2022-09-27T06:33:29.237Z,50.922722
2022-09-27T06:34:29.250Z,50.922810
2022-09-27T06:35:29.215Z,50.922909
2022-09-27T06:36:29.204Z,50.922920
2022-09-27T06:37:30.202Z,50.922939
2022-09-27T06:38:29.195Z,50.922901
2022-09-27T06:39:29.210Z,50.922947
2022-09-27T06:40:29.222Z,50.922920
2022-09-27T06:41:29.166Z,50.922955
2022-09-27T06:42:29.159Z,50.923004
2022-09-27T06:43:29.157Z,50.922890
2022-09-27T06:44:29.167Z,50.922863
2022-09-27T06:45:29.126Z,50.922913
2022-09-27T06:46:29.188Z,50.922894
2022-09-27T06:47:29.157Z,50.922958
2022-09-27T06:48:29.108Z,50.922977
2022-09-27T06:49:29.132Z,50.922966
2022-09-27T06:50:29.090Z,50.923004
2022-09-27T06:51:29.081Z,50.922981
2022-09-27T06:52:29.075Z,50.922951
2022-09-27T06:53:29.072Z,50.922974
2022-09-27T06:54:29.079Z,50.923016
2022-09-27T06:55:29.049Z,50.922985
2022-09-27T06:56:29.039Z,50.922981
2022-09-27T06:57:30.036Z,50.922962
2022-09-27T06:58:29.025Z,50.922989
2022-09-27T06:59:29.048Z,50.922916
2022-09-27T07:00:29.004Z,50.922924
2022-09-27T07:01:29.181Z,50.922997
2022-09-27T07:02:29.006Z,50.923046
2022-09-27T07:03:32.991Z,50.923035
2022-09-27T07:04:31.006Z,50.922997
2022-09-27T07:05:28.979Z,50.923008
2022-09-27T07:06:28.966Z,50.923038
2022-09-27T07:07:29.059Z,50.922977
2022-09-27T07:08:28.952Z,50.922943
2022-09-27T07:09:28.980Z,50.922939
2022-09-27T07:10:28.925Z,50.923004
2022-09-27T07:11:28.929Z,50.923008
2022-09-27T07:12:28.916Z,50.923038
2022-09-27T07:13:28.905Z,50.923065
2022-09-27T07:14:28.932Z,50.923008
2022-09-27T07:15:28.889Z,50.922989
2022-09-27T07:16:28.923Z,50.923038
2022-09-27T07:17:28.876Z,50.922997
2022-09-27T07:18:28.868Z,50.922924
2022-09-27T07:19:28.866Z,50.923016
2022-09-27T07:20:28.880Z,50.923061
2022-09-27T07:21:28.844Z,50.922989
2022-09-27T07:22:28.830Z,50.923012
2022-09-27T07:23:28.821Z,50.923069
2022-09-27T07:25:01.768Z,50.923042
2022-09-27T07:25:28.811Z,50.922886
2022-09-27T07:26:28.798Z,50.923073
2022-09-27T07:27:28.786Z,50.923126
2022-09-27T07:28:28.784Z,50.923206
2022-09-27T07:29:28.816Z,50.923172
2022-09-27T07:30:28.812Z,50.923111
2022-09-27T07:31:28.761Z,50.923092
2022-09-27T07:32:28.751Z,50.923107
2022-09-27T07:33:28.747Z,50.923138
2022-09-27T07:34:28.733Z,50.923054
2022-09-27T07:35:28.757Z,50.923031
2022-09-27T07:36:28.719Z,50.922970
2022-09-27T07:37:28.704Z,50.922924
2022-09-27T07:38:28.705Z,50.922962
2022-09-27T07:39:28.690Z,50.922981
2022-09-27T07:40:28.760Z,50.922947
2022-09-27T07:41:28.688Z,50.923016
2022-09-27T07:42:28.664Z,50.923077
2022-09-27T07:43:28.673Z,50.922947
2022-09-27T07:44:28.660Z,50.922951
2022-09-27T07:45:28.674Z,50.923054
2022-09-27T07:46:28.638Z,50.923077
2022-09-27T07:47:28.625Z,50.923050
2022-09-27T07:48:28.623Z,50.923050
2022-09-27T07:49:28.609Z,50.923080
2022-09-27T07:50:28.629Z,50.922970
2022-09-27T07:51:28.588Z,50.922924
2022-09-27T07:52:28.588Z,50.922829
2022-09-27T07:53:28.580Z,50.922939
2022-09-27T07:54:28.569Z,50.922756
2022-09-27T07:55:28.585Z,50.922886
2022-09-27T07:56:28.550Z,50.923054
2022-09-27T07:57:29.503Z,50.922985
2022-09-27T07:58:28.540Z,50.922924
2022-09-27T07:59:28.526Z,50.922844
2022-09-27T08:00:28.553Z,50.922874
2022-09-27T08:01:28.547Z,50.923100
2022-09-27T08:02:28.573Z,50.922989
2022-09-27T08:03:28.494Z,50.922951
2022-09-27T08:04:28.491Z,50.922886
2022-09-27T08:05:28.509Z,50.922909
2022-09-27T08:06:28.473Z,50.922825
2022-09-27T08:07:28.462Z,50.922890
2022-09-27T08:08:28.450Z,50.922615
2022-09-27T08:09:28.443Z,50.922649
2022-09-27T08:10:28.467Z,50.922791
2022-09-27T08:11:28.425Z,50.922894
2022-09-27T08:12:28.436Z,50.922672
2022-09-27T08:13:28.414Z,50.922832
2022-09-27T08:14:28.410Z,50.922855
2022-09-27T08:15:28.421Z,50.923073
2022-09-27T08:16:28.448Z,50.923073
2022-09-27T08:17:28.389Z,50.923130
2022-09-27T08:18:28.371Z,50.922943
2022-09-27T08:19:28.365Z,50.922676
2022-09-27T08:20:28.380Z,50.922909
2022-09-27T08:21:28.347Z,50.922825
2022-09-27T08:22:28.341Z,50.922611
2022-09-27T08:23:28.326Z,50.922562
2022-09-27T08:24:28.328Z,50.923092
2022-09-27T08:25:28.340Z,50.923512
2022-09-27T08:26:28.301Z,50.922882
2022-09-27T08:27:28.291Z,50.922871
2022-09-27T08:28:28.293Z,50.922787
2022-09-27T08:29:28.279Z,50.922714
2022-09-27T08:30:28.299Z,50.922878
2022-09-27T08:31:28.306Z,50.922607
2022-09-27T08:32:28.256Z,50.922729
2022-09-27T08:33:32.371Z,50.922783
2022-09-27T08:34:29.246Z,50.922821
2022-09-27T08:35:28.259Z,50.923019
2022-09-27T08:36:28.217Z,50.922802
2022-09-27T08:37:28.214Z,50.922939
2022-09-27T08:38:28.203Z,50.923000
2022-09-27T08:39:28.193Z,50.922932
2022-09-27T08:40:28.311Z,50.922981
2022-09-27T08:41:28.186Z,50.922955
2022-09-27T08:42:28.171Z,50.922955
2022-09-27T08:43:28.156Z,50.922897
2022-09-27T08:44:28.153Z,50.922974
2022-09-27T08:45:28.193Z,50.922920
2022-09-27T08:46:28.137Z,50.922752
2022-09-27T08:47:28.123Z,50.922703
2022-09-27T08:48:28.121Z,50.922859
2022-09-27T08:49:28.109Z,50.922909
2022-09-27T08:50:28.131Z,50.923168
2022-09-27T08:51:28.102Z,50.923031
2022-09-27T08:52:28.083Z,50.922932
2022-09-27T08:53:28.095Z,50.922905
2022-09-27T08:54:28.068Z,50.922935
2022-09-27T08:55:28.093Z,50.922997
2022-09-27T08:56:28.056Z,50.922890
2022-09-27T08:57:28.048Z,50.922966
2022-09-27T08:58:28.035Z,50.922962
2022-09-27T08:59:28.030Z,50.922932
2022-09-27T09:00:28.051Z,50.922901
2022-09-27T09:01:29.194Z,50.922909
2022-09-27T09:02:29.050Z,50.922989
2022-09-27T09:03:28.001Z,50.923031
2022-09-27T09:04:27.987Z,50.922966
2022-09-27T09:05:28.003Z,50.922981
2022-09-27T09:06:27.972Z,50.923050
2022-09-27T09:07:27.966Z,50.923157
2022-09-27T09:08:27.962Z,50.923122
2022-09-27T09:09:27.946Z,50.923233
2022-09-27T09:10:27.965Z,50.922985
2022-09-27T09:11:27.936Z,50.922928
2022-09-27T09:12:27.925Z,50.922981
2022-09-27T09:13:27.905Z,50.922928
2022-09-27T09:14:27.899Z,50.922913
2022-09-27T09:15:27.921Z,50.922913
2022-09-27T09:16:27.896Z,50.922897
2022-09-27T09:17:27.884Z,50.922825
2022-09-27T09:18:27.870Z,50.922867
2022-09-27T09:19:27.864Z,50.922867
2022-09-27T09:20:27.895Z,50.922977
2022-09-27T09:21:27.848Z,50.922997
2022-09-27T09:22:27.845Z,50.923138
2022-09-27T09:23:27.863Z,50.922848
2022-09-27T09:24:27.827Z,50.922886
2022-09-27T09:25:27.816Z,50.922859
2022-09-27T09:26:27.807Z,50.922993
2022-09-27T09:27:27.827Z,50.922916
2022-09-27T09:28:27.800Z,50.923000
2022-09-27T09:29:27.786Z,50.922955
2022-09-27T09:30:27.775Z,50.923134
2022-09-27T09:31:27.838Z,50.922871
2022-09-27T09:32:28.790Z,50.922863
2022-09-27T09:33:27.761Z,50.922852
2022-09-27T09:34:27.746Z,50.922993
2022-09-27T09:35:27.740Z,50.923088
2022-09-27T09:36:27.723Z,50.922943
2022-09-27T09:37:27.822Z,50.923008
2022-09-27T09:38:27.713Z,50.923019
2022-09-27T09:39:27.705Z,50.923153
2022-09-27T09:40:27.742Z,50.923035
2022-09-27T09:41:27.688Z,50.923000
2022-09-27T09:42:27.713Z,50.923058
2022-09-27T09:43:27.671Z,50.923016
2022-09-27T09:44:27.664Z,50.923019
2022-09-27T09:45:27.713Z,50.923023
2022-09-27T09:46:27.640Z,50.923019
2022-09-27T09:47:28.661Z,50.923061
2022-09-27T09:48:27.631Z,50.922997
2022-09-27T09:49:27.620Z,50.922955
2022-09-27T09:50:27.608Z,50.923000
2022-09-27T09:51:27.593Z,50.923084
2022-09-27T09:52:27.617Z,50.922840
2022-09-27T09:53:27.591Z,50.922867
2022-09-27T09:54:27.574Z,50.922852
2022-09-27T09:55:27.565Z,50.922886
2022-09-27T09:56:27.560Z,50.923191
2022-09-27T09:57:27.585Z,50.922970
2022-09-27T09:58:27.552Z,50.922981
2022-09-27T09:59:27.539Z,50.923038
2022-09-27T10:00:27.534Z,50.923050
2022-09-27T10:01:27.569Z,50.923046
2022-09-27T10:02:27.625Z,50.922981
2022-09-27T10:03:27.507Z,50.922806
2022-09-27T10:04:27.503Z,50.922916
2022-09-27T10:05:27.489Z,50.923164
2022-09-27T10:06:27.480Z,50.923210
2022-09-27T10:07:27.499Z,50.922974
2022-09-27T10:08:27.467Z,50.923088
2022-09-27T10:09:27.455Z,50.923054
2022-09-27T10:10:27.448Z,50.923088
2022-09-27T10:11:27.478Z,50.923008
2022-09-27T10:12:27.468Z,50.923111
2022-09-27T10:13:27.422Z,50.922882
2022-09-27T10:14:27.419Z,50.922771
2022-09-27T10:15:27.407Z,50.922939
2022-09-27T10:16:27.475Z,50.922871
2022-09-27T10:17:27.398Z,50.922924
2022-09-27T10:18:27.384Z,50.922939
2022-09-27T10:19:27.389Z,50.922932
2022-09-27T10:20:27.366Z,50.922943
2022-09-27T10:21:27.405Z,50.922916
2022-09-27T10:22:27.356Z,50.922825
2022-09-27T10:23:27.346Z,50.922844
2022-09-27T10:24:27.341Z,50.922932
2022-09-27T10:25:27.329Z,50.922974
2022-09-27T10:26:27.324Z,50.922916
2022-09-27T10:27:27.345Z,50.922749
2022-09-27T10:28:27.311Z,50.922340
2022-09-27T10:29:27.306Z,50.921772
2022-09-27T10:30:27.295Z,50.922802
2022-09-27T10:31:27.354Z,50.922817
2022-09-27T10:32:27.328Z,50.922886
2022-09-27T10:33:27.335Z,50.923016
2022-09-27T10:34:27.256Z,50.922939
2022-09-27T10:35:27.246Z,50.922909
2022-09-27T10:36:27.242Z,50.922920
2022-09-27T10:37:27.263Z,50.922867
2022-09-27T10:38:27.224Z,50.922745
2022-09-27T10:39:27.222Z,50.922813
2022-09-27T10:40:27.246Z,50.922878
2022-09-27T10:41:27.195Z,50.922859
2022-09-27T10:42:27.227Z,50.923080
2022-09-27T10:43:29.664Z,50.923050
2022-09-27T10:44:28.171Z,50.922943
2022-09-27T10:45:27.199Z,50.922993
2022-09-27T10:46:27.164Z,50.922989
2022-09-27T10:47:27.180Z,50.922932
2022-09-27T10:48:27.142Z,50.922935
2022-09-27T10:49:27.143Z,50.922928
2022-09-27T10:50:49.097Z,50.922932
2022-09-27T10:51:29.156Z,50.922974
2022-09-27T10:52:27.114Z,50.923042
2022-09-27T10:53:27.108Z,50.923225
2022-09-27T10:54:27.100Z,50.923084
2022-09-27T10:55:27.091Z,50.923069
2022-09-27T10:56:27.086Z,50.923000
2022-09-27T10:57:27.107Z,50.923031
2022-09-27T10:58:27.072Z,50.923004
2022-09-27T10:59:27.060Z,50.922901
2022-09-27T11:00:27.058Z,50.922894
2022-09-27T11:01:27.122Z,50.922890
2022-09-27T11:02:27.127Z,50.922966
2022-09-27T11:03:27.018Z,50.922962
2022-09-27T11:04:27.062Z,50.922916
2022-09-27T11:05:27.014Z,50.922920
2022-09-27T11:06:26.999Z,50.922928
2022-09-27T11:07:27.022Z,50.922924
2022-09-27T11:08:26.986Z,50.922981
2022-09-27T11:09:26.974Z,50.922997
2022-09-27T11:10:26.967Z,50.922890
2022-09-27T11:11:26.962Z,50.922958
2022-09-27T11:12:26.981Z,50.923004
2022-09-27T11:13:26.941Z,50.923058
2022-09-27T11:14:26.936Z,50.922707
2022-09-27T11:15:26.931Z,50.922859
2022-09-27T11:16:27.040Z,50.923019
2022-09-27T11:17:26.942Z,50.923061
2022-09-27T11:18:26.938Z,50.923084
2022-09-27T11:19:26.903Z,50.923012
2022-09-27T11:20:26.888Z,50.923027
2022-09-27T11:21:26.883Z,50.923000
2022-09-27T11:22:26.899Z,50.923035
2022-09-27T11:23:26.873Z,50.923038
2022-09-27T11:24:26.854Z,50.923107